sensor_id;sensor_type;location;lat;lon;timestamp;pressure;altitude;pressure_sealevel;temperature;humidity
61805;BME280;47725;47.912;7.356;2023-11-22T00:03:26;99594.87;;;13.88;53.28
61805;BME280;47725;47.912;7.356;2023-11-22T00:07:26;99593.50;;;13.86;53.38
61805;BME280;47725;47.912;7.356;2023-11-22T00:11:26;99592.13;;;13.86;53.31
61805;BME280;47725;47.912;7.356;2023-11-22T00:15:26;99591.38;;;13.86;53.44
61805;BME280;47725;47.912;7.356;2023-11-22T00:19:26;99591.94;;;13.85;53.39
61805;BME280;47725;47.912;7.356;2023-11-22T00:23:26;99591.85;;;13.84;53.48
61805;BME280;47725;47.912;7.356;2023-11-22T00:27:26;99591.20;;;13.82;53.61
61805;BME280;47725;47.912;7.356;2023-11-22T00:31:26;99591.63;;;13.80;53.61
61805;BME280;47725;47.912;7.356;2023-11-22T00:35:26;99594.51;;;13.78;53.72
61805;BME280;47725;47.912;7.356;2023-11-22T00:39:26;99596.67;;;13.76;53.71
61805;BME280;47725;47.912;7.356;2023-11-22T00:43:26;99598.44;;;13.76;53.68
61805;BME280;47725;47.912;7.356;2023-11-22T00:47:26;99600.08;;;13.75;53.72
61805;BME280;47725;47.912;7.356;2023-11-22T00:51:26;99602.23;;;13.74;53.72
61805;BME280;47725;47.912;7.356;2023-11-22T00:55:26;99604.10;;;13.74;53.76
61805;BME280;47725;47.912;7.356;2023-11-22T00:59:26;99605.08;;;13.73;53.85
61805;BME280;47725;47.912;7.356;2023-11-22T01:03:26;99606.22;;;13.73;53.88
61805;BME280;47725;47.912;7.356;2023-11-22T01:07:26;99606.55;;;13.73;53.86
61805;BME280;47725;47.912;7.356;2023-11-22T01:11:26;99607.30;;;13.74;53.82
61805;BME280;47725;47.912;7.356;2023-11-22T01:15:26;99608.51;;;13.74;53.74
61805;BME280;47725;47.912;7.356;2023-11-22T01:19:26;99611.19;;;13.74;53.88
61805;BME280;47725;47.912;7.356;2023-11-22T01:23:26;99613.14;;;13.74;53.91
61805;BME280;47725;47.912;7.356;2023-11-22T01:27:26;99614.22;;;13.73;53.92
61805;BME280;47725;47.912;7.356;2023-11-22T01:31:26;99614.72;;;13.73;53.87
61805;BME280;47725;47.912;7.356;2023-11-22T01:35:26;99615.59;;;13.74;53.82
61805;BME280;47725;47.912;7.356;2023-11-22T01:39:26;99617.65;;;13.74;53.87
61805;BME280;47725;47.912;7.356;2023-11-22T01:43:26;99620.10;;;13.74;53.86
61805;BME280;47725;47.912;7.356;2023-11-22T01:47:26;99623.14;;;13.74;53.90
61805;BME280;47725;47.912;7.356;2023-11-22T01:51:26;99625.59;;;13.74;53.95
61805;BME280;47725;47.912;7.356;2023-11-22T01:55:26;99628.56;;;13.75;53.96
61805;BME280;47725;47.912;7.356;2023-11-22T01:59:26;99629.77;;;13.75;54.00
61805;BME280;47725;47.912;7.356;2023-11-22T02:03:26;99629.74;;;13.76;53.93
61805;BME280;47725;47.912;7.356;2023-11-22T02:07:26;99629.44;;;13.77;54.03
61805;BME280;47725;47.912;7.356;2023-11-22T02:11:26;99629.41;;;13.77;54.06
61805;BME280;47725;47.912;7.356;2023-11-22T02:15:26;99629.74;;;13.77;54.14
61805;BME280;47725;47.912;7.356;2023-11-22T02:19:26;99630.74;;;13.77;54.18
61805;BME280;47725;47.912;7.356;2023-11-22T02:23:26;99633.15;;;13.77;54.06
61805;BME280;47725;47.912;7.356;2023-11-22T02:27:26;99635.94;;;13.77;54.22
61805;BME280;47725;47.912;7.356;2023-11-22T02:31:26;99638.36;;;13.76;54.43
61805;BME280;47725;47.912;7.356;2023-11-22T02:35:26;99642.54;;;13.74;54.52
61805;BME280;47725;47.912;7.356;2023-11-22T02:39:28;99645.94;;;13.73;54.45
61805;BME280;47725;47.912;7.356;2023-11-22T02:43:26;99649.97;;;13.70;54.78
61805;BME280;47725;47.912;7.356;2023-11-22T02:47:26;99654.35;;;13.66;55.04
61805;BME280;47725;47.912;7.356;2023-11-22T02:51:26;99660.63;;;13.62;55.11
61805;BME280;47725;47.912;7.356;2023-11-22T02:55:26;99667.88;;;13.56;55.19
61805;BME280;47725;47.912;7.356;2023-11-22T02:59:26;99674.31;;;13.48;55.37
61805;BME280;47725;47.912;7.356;2023-11-22T03:03:26;99681.53;;;13.40;55.32
61805;BME280;47725;47.912;7.356;2023-11-22T03:07:26;99689.50;;;13.33;55.28
61805;BME280;47725;47.912;7.356;2023-11-22T03:11:26;99697.89;;;13.25;54.68
61805;BME280;47725;47.912;7.356;2023-11-22T03:15:26;99707.11;;;13.14;54.69
61805;BME280;47725;47.912;7.356;2023-11-22T03:19:26;99715.41;;;13.01;54.65
61805;BME280;47725;47.912;7.356;2023-11-22T03:23:26;99724.03;;;12.89;54.76
61805;BME280;47725;47.912;7.356;2023-11-22T03:27:26;99733.20;;;12.80;54.28
61805;BME280;47725;47.912;7.356;2023-11-22T03:31:26;99740.73;;;12.70;54.46
61805;BME280;47725;47.912;7.356;2023-11-22T03:35:26;99747.09;;;12.60;54.49
61805;BME280;47725;47.912;7.356;2023-11-22T03:39:26;99755.41;;;12.53;54.48
61805;BME280;47725;47.912;7.356;2023-11-22T03:43:26;99762.12;;;12.45;54.49
61805;BME280;47725;47.912;7.356;2023-11-22T03:47:26;99767.35;;;12.37;54.61
61805;BME280;47725;47.912;7.356;2023-11-22T03:51:26;99772.29;;;12.28;54.79
61805;BME280;47725;47.912;7.356;2023-11-22T03:55:26;99776.05;;;12.19;54.70
61805;BME280;47725;47.912;7.356;2023-11-22T03:59:26;99778.83;;;12.10;54.48
61805;BME280;47725;47.912;7.356;2023-11-22T04:03:26;99781.37;;;12.01;54.76
61805;BME280;47725;47.912;7.356;2023-11-22T04:07:26;99785.16;;;11.90;54.83
61805;BME280;47725;47.912;7.356;2023-11-22T04:11:26;99790.13;;;11.79;54.93
61805;BME280;47725;47.912;7.356;2023-11-22T04:15:26;99794.83;;;11.69;54.87
61805;BME280;47725;47.912;7.356;2023-11-22T04:19:26;99799.24;;;11.59;54.85
61805;BME280;47725;47.912;7.356;2023-11-22T04:23:26;99805.22;;;11.51;55.05
61805;BME280;47725;47.912;7.356;2023-11-22T04:27:26;99810.97;;;11.44;54.89
61805;BME280;47725;47.912;7.356;2023-11-22T04:31:26;99817.36;;;11.35;55.38
61805;BME280;47725;47.912;7.356;2023-11-22T04:35:26;99822.33;;;11.28;55.30
61805;BME280;47725;47.912;7.356;2023-11-22T04:39:26;99828.94;;;11.22;55.27
61805;BME280;47725;47.912;7.356;2023-11-22T04:43:26;99834.72;;;11.18;55.16
61805;BME280;47725;47.912;7.356;2023-11-22T04:47:26;99838.64;;;11.14;55.12
61805;BME280;47725;47.912;7.356;2023-11-22T04:51:26;99841.56;;;11.08;55.31
61805;BME280;47725;47.912;7.356;2023-11-22T04:55:26;99844.48;;;11.02;55.26
61805;BME280;47725;47.912;7.356;2023-11-22T04:59:26;99848.39;;;10.97;55.19
61805;BME280;47725;47.912;7.356;2023-11-22T05:03:26;99850.37;;;10.91;55.08
61805;BME280;47725;47.912;7.356;2023-11-22T05:07:26;99853.53;;;10.84;55.66
61805;BME280;47725;47.912;7.356;2023-11-22T05:11:26;99857.46;;;10.79;55.46
61805;BME280;47725;47.912;7.356;2023-11-22T05:15:28;99864.94;;;10.74;55.24
61805;BME280;47725;47.912;7.356;2023-11-22T05:19:26;99872.88;;;10.68;55.52
61805;BME280;47725;47.912;7.356;2023-11-22T05:23:26;99881.27;;;10.63;55.48
61805;BME280;47725;47.912;7.356;2023-11-22T05:27:26;99890.54;;;10.59;55.47
61805;BME280;47725;47.912;7.356;2023-11-22T05:31:26;99898.16;;;10.54;55.71
61805;BME280;47725;47.912;7.356;2023-11-22T05:35:26;99905.92;;;10.49;55.70
61805;BME280;47725;47.912;7.356;2023-11-22T05:39:26;99911.64;;;10.45;55.48
61805;BME280;47725;47.912;7.356;2023-11-22T05:43:26;99919.08;;;10.41;55.33
61805;BME280;47725;47.912;7.356;2023-11-22T05:47:26;99926.93;;;10.36;55.25
61805;BME280;47725;47.912;7.356;2023-11-22T05:51:26;99933.69;;;10.34;55.09
61805;BME280;47725;47.912;7.356;2023-11-22T05:55:26;99938.39;;;10.31;55.09
61805;BME280;47725;47.912;7.356;2023-11-22T05:59:26;99942.33;;;10.28;54.74
61805;BME280;47725;47.912;7.356;2023-11-22T06:03:26;99946.84;;;10.24;54.76
61805;BME280;47725;47.912;7.356;2023-11-22T06:07:26;99949.48;;;10.20;54.71
61805;BME280;47725;47.912;7.356;2023-11-22T06:11:26;99952.33;;;10.18;54.33
61805;BME280;47725;47.912;7.356;2023-11-22T06:15:25;99953.16;;;10.13;54.48
61805;BME280;47725;47.912;7.356;2023-11-22T06:19:25;99955.53;;;10.08;54.42
61805;BME280;47725;47.912;7.356;2023-11-22T06:23:25;99957.23;;;10.01;54.52
61805;BME280;47725;47.912;7.356;2023-11-22T06:27:26;99958.87;;;9.97;54.23
61805;BME280;47725;47.912;7.356;2023-11-22T06:31:26;99960.66;;;9.93;54.10
61805;BME280;47725;47.912;7.356;2023-11-22T06:35:26;99966.52;;;9.90;53.00
61805;BME280;47725;47.912;7.356;2023-11-22T06:39:25;99972.31;;;9.86;53.25
61805;BME280;47725;47.912;7.356;2023-11-22T06:43:25;99981.73;;;9.81;53.12
61805;BME280;47725;47.912;7.356;2023-11-22T06:47:26;99992.63;;;9.77;52.22
61805;BME280;47725;47.912;7.356;2023-11-22T06:51:25;100003.72;;;9.72;52.57
61805;BME280;47725;47.912;7.356;2023-11-22T06:55:25;100014.20;;;9.68;52.28
61805;BME280;47725;47.912;7.356;2023-11-22T06:59:25;100023.19;;;9.65;51.92
61805;BME280;47725;47.912;7.356;2023-11-22T07:03:25;100032.06;;;9.61;51.66
61805;BME280;47725;47.912;7.356;2023-11-22T07:07:25;100040.88;;;9.57;52.03
61805;BME280;47725;47.912;7.356;2023-11-22T07:11:25;100050.22;;;9.54;51.00
61805;BME280;47725;47.912;7.356;2023-11-22T07:15:25;100059.06;;;9.50;51.75
61805;BME280;47725;47.912;7.356;2023-11-22T07:19:25;100067.10;;;9.48;51.74
61805;BME280;47725;47.912;7.356;2023-11-22T07:23:25;100072.44;;;9.45;51.25
61805;BME280;47725;47.912;7.356;2023-11-22T07:27:25;100078.93;;;9.44;51.38
61805;BME280;47725;47.912;7.356;2023-11-22T07:31:25;100087.26;;;9.42;51.18
61805;BME280;47725;47.912;7.356;2023-11-22T07:35:25;100095.08;;;9.39;51.10
61805;BME280;47725;47.912;7.356;2023-11-22T07:39:25;100101.97;;;9.38;51.34
61805;BME280;47725;47.912;7.356;2023-11-22T07:43:25;100108.37;;;9.38;50.77
61805;BME280;47725;47.912;7.356;2023-11-22T07:47:25;100113.08;;;9.36;50.83
61805;BME280;47725;47.912;7.356;2023-11-22T07:51:25;100114.60;;;9.36;50.68
61805;BME280;47725;47.912;7.356;2023-11-22T07:55:25;100113.09;;;9.35;49.88
61805;BME280;47725;47.912;7.356;2023-11-22T07:59:25;100114.67;;;9.33;50.61
61805;BME280;47725;47.912;7.356;2023-11-22T08:03:26;100118.91;;;9.31;50.67
61805;BME280;47725;47.912;7.356;2023-11-22T08:07:25;100126.18;;;9.30;50.56
61805;BME280;47725;47.912;7.356;2023-11-22T08:11:25;100133.03;;;9.31;50.44
61805;BME280;47725;47.912;7.356;2023-11-22T08:15:25;100138.33;;;9.31;49.90
61805;BME280;47725;47.912;7.356;2023-11-22T08:19:25;100143.89;;;9.29;49.78
61805;BME280;47725;47.912;7.356;2023-11-22T08:23:25;100146.15;;;9.28;49.62
61805;BME280;47725;47.912;7.356;2023-11-22T08:27:25;100146.75;;;9.28;49.65
61805;BME280;47725;47.912;7.356;2023-11-22T08:31:25;100145.94;;;9.26;49.40
61805;BME280;47725;47.912;7.356;2023-11-22T08:35:25;100146.91;;;9.25;49.90
61805;BME280;47725;47.912;7.356;2023-11-22T08:39:25;100149.70;;;9.25;49.68
61805;BME280;47725;47.912;7.356;2023-11-22T08:43:25;100151.95;;;9.26;49.67
61805;BME280;47725;47.912;7.356;2023-11-22T08:47:25;100154.49;;;9.27;49.32
61805;BME280;47725;47.912;7.356;2023-11-22T08:51:25;100155.53;;;9.30;48.47
61805;BME280;47725;47.912;7.356;2023-11-22T08:55:25;100155.36;;;9.33;48.95
61805;BME280;47725;47.912;7.356;2023-11-22T08:59:25;100156.06;;;9.36;48.19
61805;BME280;47725;47.912;7.356;2023-11-22T09:03:25;100155.71;;;9.36;48.92
61805;BME280;47725;47.912;7.356;2023-11-22T09:07:25;100158.01;;;9.38;48.90
61805;BME280;47725;47.912;7.356;2023-11-22T09:11:25;100162.80;;;9.40;48.55
61805;BME280;47725;47.912;7.356;2023-11-22T09:15:25;100169.12;;;9.41;48.87
61805;BME280;47725;47.912;7.356;2023-11-22T09:19:25;100173.58;;;9.44;47.91
61805;BME280;47725;47.912;7.356;2023-11-22T09:23:25;100175.38;;;9.44;48.24
61805;BME280;47725;47.912;7.356;2023-11-22T09:27:25;100178.44;;;9.44;48.23
61805;BME280;47725;47.912;7.356;2023-11-22T09:31:25;100182.70;;;9.45;48.17
61805;BME280;47725;47.912;7.356;2023-11-22T09:35:25;100186.49;;;9.44;48.22
61805;BME280;47725;47.912;7.356;2023-11-22T09:39:25;100188.98;;;9.46;48.32
61805;BME280;47725;47.912;7.356;2023-11-22T09:43:25;100190.86;;;9.48;48.05
61805;BME280;47725;47.912;7.356;2023-11-22T09:47:26;100193.54;;;9.49;48.02
61805;BME280;47725;47.912;7.356;2023-11-22T09:51:28;100194.44;;;9.50;47.68
61805;BME280;47725;47.912;7.356;2023-11-22T09:55:26;100194.35;;;9.50;47.60
61805;BME280;47725;47.912;7.356;2023-11-22T09:59:25;100195.47;;;9.51;47.75
61805;BME280;47725;47.912;7.356;2023-11-22T10:03:26;100200.14;;;9.52;48.19
61805;BME280;47725;47.912;7.356;2023-11-22T10:07:25;100203.43;;;9.54;48.23
61805;BME280;47725;47.912;7.356;2023-11-22T10:11:25;100204.86;;;9.57;47.66
61805;BME280;47725;47.912;7.356;2023-11-22T10:15:27;100202.51;;;9.59;47.12
61805;BME280;47725;47.912;7.356;2023-11-22T10:19:25;100198.86;;;9.61;47.68
61805;BME280;47725;47.912;7.356;2023-11-22T10:23:25;100196.31;;;9.63;47.84
61805;BME280;47725;47.912;7.356;2023-11-22T10:27:25;100193.08;;;9.66;47.55
61805;BME280;47725;47.912;7.356;2023-11-22T10:31:25;100190.20;;;9.70;47.21
61805;BME280;47725;47.912;7.356;2023-11-22T10:35:25;100186.77;;;9.72;47.23
61805;BME280;47725;47.912;7.356;2023-11-22T10:39:25;100186.60;;;9.73;47.58
61805;BME280;47725;47.912;7.356;2023-11-22T10:43:25;100189.14;;;9.74;47.56
61805;BME280;47725;47.912;7.356;2023-11-22T10:47:26;100192.33;;;9.76;47.52
61805;BME280;47725;47.912;7.356;2023-11-22T10:51:30;100196.56;;;9.77;47.33
61805;BME280;47725;47.912;7.356;2023-11-22T10:55:32;100202.79;;;9.77;47.26
61805;BME280;47725;47.912;7.356;2023-11-22T10:59:26;100209.18;;;9.78;47.81
61805;BME280;47725;47.912;7.356;2023-11-22T11:03:26;100216.03;;;9.82;47.49
61805;BME280;47725;47.912;7.356;2023-11-22T11:07:25;100220.98;;;9.86;46.85
61805;BME280;47725;47.912;7.356;2023-11-22T11:11:25;100225.12;;;9.87;47.10
61805;BME280;47725;47.912;7.356;2023-11-22T11:15:25;100228.94;;;9.89;46.99
61805;BME280;47725;47.912;7.356;2023-11-22T11:19:25;100233.54;;;9.90;46.54
61805;BME280;47725;47.912;7.356;2023-11-22T11:23:26;100234.95;;;9.92;46.79
61805;BME280;47725;47.912;7.356;2023-11-22T11:27:25;100235.37;;;9.95;46.68
61805;BME280;47725;47.912;7.356;2023-11-22T11:31:25;100241.39;;;9.99;46.87
61805;BME280;47725;47.912;7.356;2023-11-22T11:35:37;100245.18;;;10.02;46.57
61805;BME280;47725;47.912;7.356;2023-11-22T11:39:26;100248.67;;;10.04;46.23
61805;BME280;47725;47.912;7.356;2023-11-22T11:43:38;100251.86;;;10.05;46.17
61805;BME280;47725;47.912;7.356;2023-11-22T11:47:25;100255.38;;;10.06;45.79
61805;BME280;47725;47.912;7.356;2023-11-22T11:51:26;100257.37;;;10.06;45.15
61805;BME280;47725;47.912;7.356;2023-11-22T11:55:26;100260.22;;;10.06;45.57
61805;BME280;47725;47.912;7.356;2023-11-22T11:59:25;100265.17;;;10.06;45.44
61805;BME280;47725;47.912;7.356;2023-11-22T12:03:25;100270.36;;;10.07;44.99
61805;BME280;47725;47.912;7.356;2023-11-22T12:07:25;100273.28;;;10.08;45.64
61805;BME280;47725;47.912;7.356;2023-11-22T12:11:25;100275.72;;;10.11;45.61
61805;BME280;47725;47.912;7.356;2023-11-22T12:15:25;100276.81;;;10.16;45.75
61805;BME280;47725;47.912;7.356;2023-11-22T12:19:26;100276.65;;;10.19;45.71
61805;BME280;47725;47.912;7.356;2023-11-22T12:23:25;100278.89;;;10.21;45.50
61805;BME280;47725;47.912;7.356;2023-11-22T12:27:25;100283.22;;;10.25;46.01
61805;BME280;47725;47.912;7.356;2023-11-22T12:31:25;100288.19;;;10.29;45.17
61805;BME280;47725;47.912;7.356;2023-11-22T12:35:25;100292.71;;;10.31;45.33
61805;BME280;47725;47.912;7.356;2023-11-22T12:39:25;100296.28;;;10.31;44.79
61805;BME280;47725;47.912;7.356;2023-11-22T12:43:25;100300.16;;;10.30;44.92
61805;BME280;47725;47.912;7.356;2023-11-22T12:47:31;100304.76;;;10.29;45.19
61805;BME280;47725;47.912;7.356;2023-11-22T12:51:25;100308.79;;;10.29;45.17
61805;BME280;47725;47.912;7.356;2023-11-22T12:55:25;100311.11;;;10.29;44.82
61805;BME280;47725;47.912;7.356;2023-11-22T12:59:25;100315.48;;;10.29;45.00
61805;BME280;47725;47.912;7.356;2023-11-22T13:03:25;100316.69;;;10.28;45.15
61805;BME280;47725;47.912;7.356;2023-11-22T13:07:25;100317.71;;;10.30;45.10
61805;BME280;47725;47.912;7.356;2023-11-22T13:11:25;100318.83;;;10.36;44.85
61805;BME280;47725;47.912;7.356;2023-11-22T13:15:25;100318.78;;;10.46;44.64
61805;BME280;47725;47.912;7.356;2023-11-22T13:19:25;100318.91;;;10.56;43.61
61805;BME280;47725;47.912;7.356;2023-11-22T13:23:25;100320.00;;;10.65;43.29
61805;BME280;47725;47.912;7.356;2023-11-22T13:27:25;100317.88;;;10.74;43.01
61805;BME280;47725;47.912;7.356;2023-11-22T13:31:25;100312.50;;;10.84;42.73
61805;BME280;47725;47.912;7.356;2023-11-22T13:35:25;100310.53;;;10.95;42.08
61805;BME280;47725;47.912;7.356;2023-11-22T13:39:25;100308.69;;;11.04;42.56
61805;BME280;47725;47.912;7.356;2023-11-22T13:43:25;100306.17;;;11.15;41.99
61805;BME280;47725;47.912;7.356;2023-11-22T13:47:25;100305.52;;;11.25;41.25
61805;BME280;47725;47.912;7.356;2023-11-22T13:51:25;100306.83;;;11.33;41.88
61805;BME280;47725;47.912;7.356;2023-11-22T13:55:25;100309.04;;;11.42;41.51
61805;BME280;47725;47.912;7.356;2023-11-22T13:59:25;100313.65;;;11.50;41.51
61805;BME280;47725;47.912;7.356;2023-11-22T14:03:25;100317.80;;;11.61;40.80
61805;BME280;47725;47.912;7.356;2023-11-22T14:07:25;100322.88;;;11.70;41.13
61805;BME280;47725;47.912;7.356;2023-11-22T14:11:25;100327.51;;;11.76;40.98
61805;BME280;47725;47.912;7.356;2023-11-22T14:19:25;100342.94;;;11.85;40.89
61805;BME280;47725;47.912;7.356;2023-11-22T14:23:25;100348.22;;;11.94;40.87
61805;BME280;47725;47.912;7.356;2023-11-22T14:27:25;100352.46;;;12.00;40.55
61805;BME280;47725;47.912;7.356;2023-11-22T14:31:31;100357.28;;;12.04;40.15
61805;BME280;47725;47.912;7.356;2023-11-22T14:35:25;100360.96;;;12.05;40.00
61805;BME280;47725;47.912;7.356;2023-11-22T14:39:25;100366.39;;;12.05;40.33
61805;BME280;47725;47.912;7.356;2023-11-22T14:43:28;100367.88;;;12.04;40.34
61805;BME280;47725;47.912;7.356;2023-11-22T14:47:28;100367.99;;;12.03;40.63
61805;BME280;47725;47.912;7.356;2023-11-22T14:51:28;100368.30;;;12.01;40.26
61805;BME280;47725;47.912;7.356;2023-11-22T14:55:25;100369.20;;;11.94;40.56
61805;BME280;47725;47.912;7.356;2023-11-22T14:59:28;100369.37;;;11.87;41.09
61805;BME280;47725;47.912;7.356;2023-11-22T15:03:28;100370.17;;;11.80;41.44
61805;BME280;47725;47.912;7.356;2023-11-22T15:07:25;100369.03;;;11.75;41.51
61805;BME280;47725;47.912;7.356;2023-11-22T15:11:25;100366.71;;;11.69;41.49
61805;BME280;47725;47.912;7.356;2023-11-22T15:15:25;100367.89;;;11.62;41.59
61805;BME280;47725;47.912;7.356;2023-11-22T15:19:25;100373.36;;;11.55;41.39
61805;BME280;47725;47.912;7.356;2023-11-22T15:23:28;100375.81;;;11.48;41.95
61805;BME280;47725;47.912;7.356;2023-11-22T15:27:25;100375.76;;;11.40;41.84
61805;BME280;47725;47.912;7.356;2023-11-22T15:31:25;100375.66;;;11.31;41.86
61805;BME280;47725;47.912;7.356;2023-11-22T15:35:25;100374.59;;;11.22;41.85
61805;BME280;47725;47.912;7.356;2023-11-22T15:39:28;100374.99;;;11.11;41.65
61805;BME280;47725;47.912;7.356;2023-11-22T15:43:25;100373.74;;;10.99;41.87
61805;BME280;47725;47.912;7.356;2023-11-22T15:47:27;100374.11;;;10.87;42.08
61805;BME280;47725;47.912;7.356;2023-11-22T15:51:25;100374.77;;;10.76;42.41
61805;BME280;47725;47.912;7.356;2023-11-22T15:55:28;100375.57;;;10.69;42.41
61805;BME280;47725;47.912;7.356;2023-11-22T15:59:28;100377.59;;;10.61;42.61
61805;BME280;47725;47.912;7.356;2023-11-22T16:03:31;100379.41;;;10.54;42.79
61805;BME280;47725;47.912;7.356;2023-11-22T16:07:25;100381.72;;;10.47;43.00
61805;BME280;47725;47.912;7.356;2023-11-22T16:11:25;100383.39;;;10.41;43.01
61805;BME280;47725;47.912;7.356;2023-11-22T16:15:25;100383.60;;;10.34;42.88
61805;BME280;47725;47.912;7.356;2023-11-22T16:19:25;100380.99;;;10.27;42.83
61805;BME280;47725;47.912;7.356;2023-11-22T16:23:25;100378.54;;;10.19;43.03
61805;BME280;47725;47.912;7.356;2023-11-22T16:27:28;100380.46;;;10.11;43.00
61805;BME280;47725;47.912;7.356;2023-11-22T16:31:25;100383.31;;;10.03;43.29
61805;BME280;47725;47.912;7.356;2023-11-22T16:35:25;100387.08;;;9.95;43.23
61805;BME280;47725;47.912;7.356;2023-11-22T16:39:25;100392.14;;;9.87;43.46
61805;BME280;47725;47.912;7.356;2023-11-22T16:43:33;100398.91;;;9.80;43.65
61805;BME280;47725;47.912;7.356;2023-11-22T16:47:25;100405.98;;;9.75;43.70
61805;BME280;47725;47.912;7.356;2023-11-22T16:51:28;100410.28;;;9.71;43.72
61805;BME280;47725;47.912;7.356;2023-11-22T16:55:28;100416.56;;;9.65;44.03
61805;BME280;47725;47.912;7.356;2023-11-22T16:59:25;100424.22;;;9.61;44.02
61805;BME280;47725;47.912;7.356;2023-11-22T17:03:25;100432.79;;;9.56;44.02
61805;BME280;47725;47.912;7.356;2023-11-22T17:07:25;100441.64;;;9.51;44.26
61805;BME280;47725;47.912;7.356;2023-11-22T17:11:25;100448.47;;;9.47;44.29
61805;BME280;47725;47.912;7.356;2023-11-22T17:15:25;100457.28;;;9.45;44.12
61805;BME280;47725;47.912;7.356;2023-11-22T17:19:25;100465.09;;;9.42;44.04
61805;BME280;47725;47.912;7.356;2023-11-22T17:23:25;100473.41;;;9.38;44.25
61805;BME280;47725;47.912;7.356;2023-11-22T17:27:25;100481.39;;;9.37;44.06
61805;BME280;47725;47.912;7.356;2023-11-22T17:31:25;100489.70;;;9.36;43.84
61805;BME280;47725;47.912;7.356;2023-11-22T17:35:28;100497.30;;;9.33;44.08
61805;BME280;47725;47.912;7.356;2023-11-22T17:39:25;100502.54;;;9.30;44.06
61805;BME280;47725;47.912;7.356;2023-11-22T17:43:30;100504.67;;;9.27;44.09
61805;BME280;47725;47.912;7.356;2023-11-22T17:47:25;100505.89;;;9.24;44.13
61805;BME280;47725;47.912;7.356;2023-11-22T17:51:28;100506.98;;;9.22;44.26
61805;BME280;47725;47.912;7.356;2023-11-22T17:55:28;100508.39;;;9.20;44.30
61805;BME280;47725;47.912;7.356;2023-11-22T17:59:25;100508.70;;;9.18;44.26
61805;BME280;47725;47.912;7.356;2023-11-22T18:03:25;100510.24;;;9.18;44.33
61805;BME280;47725;47.912;7.356;2023-11-22T18:07:28;100513.13;;;9.18;44.13
61805;BME280;47725;47.912;7.356;2023-11-22T18:11:34;100514.62;;;9.18;44.26
61805;BME280;47725;47.912;7.356;2023-11-22T18:15:25;100516.24;;;9.18;44.24
61805;BME280;47725;47.912;7.356;2023-11-22T18:19:25;100515.87;;;9.17;44.01
61805;BME280;47725;47.912;7.356;2023-11-22T18:23:25;100518.13;;;9.16;43.97
61805;BME280;47725;47.912;7.356;2023-11-22T18:27:25;100518.59;;;9.12;44.28
61805;BME280;47725;47.912;7.356;2023-11-22T18:31:25;100520.99;;;9.09;44.34
61805;BME280;47725;47.912;7.356;2023-11-22T18:35:25;100525.34;;;9.06;44.26
61805;BME280;47725;47.912;7.356;2023-11-22T18:39:25;100531.28;;;9.02;44.48
61805;BME280;47725;47.912;7.356;2023-11-22T18:43:25;100536.39;;;8.98;44.53
61805;BME280;47725;47.912;7.356;2023-11-22T18:47:25;100539.59;;;8.96;44.54
61805;BME280;47725;47.912;7.356;2023-11-22T18:51:27;100540.12;;;8.93;44.49
61805;BME280;47725;47.912;7.356;2023-11-22T18:55:25;100540.67;;;8.89;44.60
61805;BME280;47725;47.912;7.356;2023-11-22T18:59:27;100541.49;;;8.84;44.70
61805;BME280;47725;47.912;7.356;2023-11-22T19:03:27;100542.22;;;8.79;44.77
61805;BME280;47725;47.912;7.356;2023-11-22T19:07:28;100541.05;;;8.71;45.02
61805;BME280;47725;47.912;7.356;2023-11-22T19:11:35;100537.19;;;8.63;45.04
61805;BME280;47725;47.912;7.356;2023-11-22T19:15:25;100532.33;;;8.54;45.22
61805;BME280;47725;47.912;7.356;2023-11-22T19:19:27;100528.92;;;8.45;45.44
61805;BME280;47725;47.912;7.356;2023-11-22T19:23:28;100527.91;;;8.36;45.51
61805;BME280;47725;47.912;7.356;2023-11-22T19:27:27;100528.81;;;8.27;45.73
61805;BME280;47725;47.912;7.356;2023-11-22T19:31:28;100529.25;;;8.19;45.76
61805;BME280;47725;47.912;7.356;2023-11-22T19:35:25;100529.38;;;8.12;45.54
61805;BME280;47725;47.912;7.356;2023-11-22T19:39:25;100529.14;;;8.05;45.75
61805;BME280;47725;47.912;7.356;2023-11-22T19:43:27;100529.10;;;8.01;45.68
61805;BME280;47725;47.912;7.356;2023-11-22T19:47:28;100530.11;;;7.98;45.76
61805;BME280;47725;47.912;7.356;2023-11-22T19:51:24;100534.94;;;7.96;45.71
61805;BME280;47725;47.912;7.356;2023-11-22T19:55:24;100541.35;;;7.95;45.90
61805;BME280;47725;47.912;7.356;2023-11-22T19:59:24;100547.94;;;7.94;45.96
61805;BME280;47725;47.912;7.356;2023-11-22T20:03:25;100554.88;;;7.95;45.99
61805;BME280;47725;47.912;7.356;2023-11-22T20:07:24;100561.45;;;7.96;46.04
61805;BME280;47725;47.912;7.356;2023-11-22T20:11:24;100566.82;;;7.97;45.87
61805;BME280;47725;47.912;7.356;2023-11-22T20:15:24;100569.00;;;7.99;45.81
61805;BME280;47725;47.912;7.356;2023-11-22T20:19:24;100566.20;;;7.98;46.08
61805;BME280;47725;47.912;7.356;2023-11-22T20:23:24;100560.22;;;7.98;45.89
61805;BME280;47725;47.912;7.356;2023-11-22T20:27:24;100553.15;;;7.98;45.92
61805;BME280;47725;47.912;7.356;2023-11-22T20:31:24;100546.11;;;7.96;46.10
61805;BME280;47725;47.912;7.356;2023-11-22T20:35:24;100540.45;;;7.94;46.08
61805;BME280;47725;47.912;7.356;2023-11-22T20:39:24;100535.35;;;7.90;46.22
61805;BME280;47725;47.912;7.356;2023-11-22T20:43:24;100530.17;;;7.85;46.28
61805;BME280;47725;47.912;7.356;2023-11-22T20:47:24;100527.92;;;7.79;46.52
61805;BME280;47725;47.912;7.356;2023-11-22T20:51:24;100526.21;;;7.75;46.39
61805;BME280;47725;47.912;7.356;2023-11-22T20:55:24;100523.74;;;7.72;46.31
61805;BME280;47725;47.912;7.356;2023-11-22T20:59:24;100520.78;;;7.69;46.35
61805;BME280;47725;47.912;7.356;2023-11-22T21:03:24;100518.00;;;7.65;46.40
61805;BME280;47725;47.912;7.356;2023-11-22T21:07:27;100516.72;;;7.61;46.59
61805;BME280;47725;47.912;7.356;2023-11-22T21:11:24;100516.27;;;7.58;46.62